Port Kent, New York
Current Conditions -  °F | °C
As of 11:11 AM on Friday 24 Oct 2014 (Local Time) from KPBG Reporting Station
Overcast Overcast  
Wind Chill: 42°   Ceiling: 2800
Heat Index: 48°   Visibility: 10mi
Dew Point: 41°   Wind: 15mph
Humidity: 77%   Direction: 350°N
Pressure: 29.87"   Gusts: NA
Location:  44.53°N, 73.41°W
Report Text: KPBG 241511Z AUTO 35013KT 10SM BKN028 OVC034 09/05 A2987 RMK AO2 T00890050
Loading
Personal Weather Stations






























Interactive Weather Map
Tropical Storm Tracking
New forecast layout! Learn more

10-Day Weather Forecast

Advertisements
Track Severe Weather on mobile